EDT,Max TemperatureF,Mean TemperatureF,Min TemperatureF,Max Dew PointF,MeanDew PointF,Min DewpointF,Max Humidity, Mean Humidity, Min Humidity, Max Sea Level PressureIn, Mean Sea Level PressureIn, Min Sea Level PressureIn, Max VisibilityMiles, Mean VisibilityMiles, Min VisibilityMiles, Max Wind SpeedMPH, Mean Wind SpeedMPH, Max Gust SpeedMPH,PrecipitationIn, CloudCover, Events, WindDirDegrees
2014-4-1,79,62,45,44,38,33,76,52,27,30.13,30.06,30.00,10,10,10,21,6,25,0.00,4,,195
2014-4-2,82,66,49,48,39,28,56,39,21,30.11,30.03,29.97,10,10,10,16,7,21,0.00,5,,224
2014-4-3,79,69,59,59,55,47,90,68,45,30.05,29.95,29.84,10,10,7,29,13,33,0.02,7,Rain-Thunderstorm,225
2014-4-4,68,61,54,60,56,47,97,80,63,29.94,29.82,29.73,10,8,1,32,15,41,0.83,6,Rain-Thunderstorm,230
2014-4-5,59,51,42,44,35,32,77,59,40,30.12,30.07,29.97,10,10,10,14,8,23,0.00,5,,2
2014-4-6,66,54,42,51,37,33,93,65,36,30.07,30.00,29.90,10,10,6,13,4,15,0.16,7,Rain,16
2014-4-7,71,61,50,57,52,45,100,81,61,29.93,29.72,29.52,10,7,2,31,13,39,1.26,8,Rain,58
2014-4-8,61,54,47,45,39,34,76,58,40,29.81,29.76,29.71,10,10,10,20,7,26,T,7,Rain,257
2014-4-9,65,56,46,46,39,29,93,60,26,30.12,30.00,29.83,10,10,10,17,6,23,T,5,Rain,240
2014-4-10,74,57,39,39,36,34,85,56,27,30.24,30.14,30.06,10,10,10,23,9,28,0.00,2,,225
2014-4-11,74,64,53,49,42,35,55,40,25,30.18,30.12,30.04,10,10,10,23,13,28,T,6,Rain,222
2014-4-12,79,66,52,54,52,51,100,70,39,30.20,30.11,30.01,10,9,3,15,5,19,0.00,2,,237
2014-4-13,83,71,59,56,52,49,73,54,34,30.10,30.01,29.89,10,10,10,25,12,33,0.00,4,,219
2014-4-14,73,67,61,59,55,51,97,73,49,29.92,29.83,29.74,10,10,5,24,12,32,0.10,8,Rain,218
2014-4-15,65,50,35,59,39,22,97,76,54,30.19,29.92,29.65,10,8,1,20,12,25,0.20,8,Rain-Snow,345
2014-4-16,59,45,30,34,25,21,69,51,32,30.35,30.26,30.20,10,10,10,22,8,27,0.00,1,,36
2014-4-17,68,51,34,37,33,31,89,58,26,30.42,30.33,30.27,10,10,10,7,2,11,0.00,4,,8
2014-4-18,63,56,48,42,39,34,71,57,42,30.34,30.26,30.15,10,10,10,12,5,16,0.00,8,,33
2014-4-19,65,57,49,53,45,39,93,68,43,30.17,30.14,30.10,10,10,10,16,6,22,0.04,7,Rain,54
2014-4-20,76,59,42,49,44,36,100,64,27,30.25,30.19,30.11,10,6,0,14,3,18,0.00,2,Fog,47
2014-4-21,77,62,46,48,44,41,86,60,33,30.16,30.05,29.92,10,10,10,14,5,16,0.00,5,,211
2014-4-22,68,64,59,62,57,49,97,79,60,29.90,29.85,29.78,10,8,2,14,8,17,0.09,7,Rain,222
2014-4-23,70,59,47,48,33,28,64,43,22,30.03,29.96,29.86,10,10,10,14,6,17,0.00,0,,18
2014-4-24,78,60,42,42,37,31,65,46,26,30.04,29.95,29.83,10,10,10,16,6,20,0.00,4,,28
2014-4-25,72,63,53,59,52,44,84,64,44,29.97,29.82,29.73,10,10,5,29,11,39,0.02,6,Rain,235
2014-4-26,80,63,45,50,44,38,100,61,21,30.04,29.97,29.93,10,10,9,10,3,12,0.00,3,,212
2014-4-27,85,67,49,63,53,46,93,64,34,29.99,29.91,29.83,10,10,6,14,4,17,0.10,6,Rain-Thunderstorm,244
2014-4-28,84,73,62,64,61,58,100,72,43,29.89,29.78,29.68,10,9,4,25,10,39,0.57,7,Rain-Thunderstorm,203
2014-4-29,80,71,61,65,60,56,93,69,45,29.80,29.72,29.61,10,7,1,32,12,43,0.63,8,Rain-Thunderstorm,214
2014-4-30,78,67,56,63,59,55,100,75,50,29.89,29.81,29.75,10,8,2,31,9,38,0.46,8,Rain-Thunderstorm,231